Angelina County Airport Lufkin US
ICAO: KLFK
IATA: LFK
Category: Medium
Scheduled Services: No

Elevation: 296 ft
TransAlt. 18000 ft.

Airport Communications:
ASOS:120.625
HOUSTON CNTR:134.8
MONTGOMERY CO RDO:122.2
CTAF/UNICOM:123

KLFK Zoom In..

Runways:

(A) RW 07 length 5400 ft width 100 ft
ILS 111.30 / hdg 70

(B) RW 15 length 4311 ft width 100 ft
---- / hdg 155

(C) RW 25 length 5400 ft width 100 ft
---- / hdg 250

(D) RW 33 length 4311 ft width 100 ft
---- / hdg 335

Location; KLFK
Day. 22 / Time. 03.53 Zulu
* Altimeter: 29.88
* Temperature: 19° c. 66.2°f.
* Wind from: 180° Speed 09 kn.
Dewpoint: 18° c.
Visibility: 10 Statute Miles.
Clouds: Broken 1300 ft.
Clouds: Broken 2200 ft.

KLFK 220353Z AUTO 18009KT 10SM BKN013 BKN022 19/18 A2988 RMK AO2 LTG DSNT E AND SE RAE0259B21E33 SLP113 P0000 T01940183


Wind From 180°
Speed 09 kn.

jpsM music video
CHECK IT OUT

jpsM - It Moves..

 
jpsmedia.com for Web Design  worldairports.se 2018   terms of use